Latest Coastal Weather Observations for Adele Island

IDW60701

Issued at 2:12 pm WST Sunday 29 March 2015 (issued every 10 minutes, with the page automatically refreshed every 10 minutes)

About coastal observations | Map of coastal stations | Coastal observations for WA | Marine services | Other Formats
Station Details ID: 200735 Name: ADELE ISLAND Lat: -15.51 Lon: 123.16 Height: 4.6 m
Data from the previous 72 hours. | See also: Recent months for locations in Western Australia
Date/Time
WST
Temp

°C
Wind Pressure Rain
since 9am
mm
Weather Cloud Vis
km
Sea
Height
m
Swell
Dir
 
Speed
knots
Gust
knots
hPa Trend Height
m
Period
s
Dir
29/02:00pm 27.8 NNW 11 13 1012.0 - - - - - - - - -
29/01:30pm 28.0 NW 14 19 1012.2 - - - - - - - - -
29/01:00pm 29.0 N 10 12 1012.2 - - - - - - - - -
29/12:30pm 29.1 NNE 10 13 1012.3 - - - - - - - - -
29/12:00pm 29.5 NNE 11 13 1012.6 - - - - - - - - -
29/11:30am 29.2 NE 10 12 1012.5 - - - - - - - - -
29/11:00am 28.9 NNE 9 11 1013.2 - - - - - - - - -
29/10:30am 28.7 NNE 9 10 1013.5 - - - - - - - - -
29/10:00am 28.7 NNE 9 12 1014.0 - - - - - - - - -
29/09:30am 28.6 NNE 10 12 1014.2 - - - - - - - - -
29/09:00am 28.5 NE 10 12 1013.7 - - - - - - - - -
29/08:30am 28.5 NE 12 15 1013.5 - - - - - - - - -
29/08:00am 28.5 NE 14 16 1013.1 - - - - - - - - -
29/07:30am 28.5 NE 14 18 1013.0 - - - - - - - - -
29/07:00am 28.3 NE 14 16 1012.6 - - - - - - - - -
29/06:30am 28.3 NE 14 16 1012.2 - - - - - - - - -
29/06:00am 28.2 NE 15 19 1011.5 - - - - - - - - -
29/05:30am 28.1 ENE 13 16 1011.2 - - - - - - - - -
29/05:00am 27.8 NE 13 15 1011.0 - - - - - - - - -
29/04:30am 28.1 NE 13 15 1011.0 - - - - - - - - -
29/04:00am 28.0 ENE 14 17 1010.5 - - - - - - - - -
29/03:30am 28.1 ENE 15 18 1010.3 - - - - - - - - -
29/03:00am 27.9 ENE 16 19 1010.3 - - - - - - - - -
29/02:30am 28.0 ENE 15 19 1010.5 - - - - - - - - -
29/02:00am 28.0 ENE 16 19 1010.7 - - - - - - - - -
29/01:30am 27.9 ENE 15 19 1010.9 - - - - - - - - -
29/01:00am 27.9 ENE 17 19 1011.0 - - - - - - - - -
29/12:30am 28.0 NE 15 19 1011.5 - - - - - - - - -
29/12:00am 28.0 ENE 17 21 1011.7 - - - - - - - - -
 
Date/Time
WST
Temp

°C
Wind Pressure Rain
since 9am
mm
Weather Cloud Vis
km
Sea
Height
m
Swell
Dir
 
Speed
knots
Gust
knots
hPa Trend Height
m
Period
s
Dir
28/11:30pm 28.0 NE 16 20 1011.9 - - - - - - - - -
28/11:00pm 28.0 NE 18 21 1012.2 - - - - - - - - -
28/10:30pm 28.1 ENE 17 21 1012.2 - - - - - - - - -
28/10:00pm 28.1 NE 18 22 1012.3 - - - - - - - - -
28/09:30pm 28.2 NE 20 25 1012.3 - - - - - - - - -
28/09:00pm 28.2 NE 19 23 1012.5 - - - - - - - - -
28/08:30pm 28.1 NE 19 24 1012.3 - - - - - - - - -
28/08:00pm 28.3 NE 21 24 1011.8 - - - - - - - - -
28/07:30pm 28.0 NE 20 25 1011.3 - - - - - - - - -
28/07:00pm 28.2 NE 21 26 1010.8 - - - - - - - - -
28/06:30pm 28.2 NNE 22 26 1010.4 - - - - - - - - -
28/06:00pm 28.1 NNE 21 26 1010.0 - - - - - - - - -
28/05:30pm 27.4 NE 20 25 1009.9 - - - - - - - - -
28/05:00pm 28.2 NE 21 26 1009.3 - - - - - - - - -
28/04:30pm 28.0 NE 23 27 1009.0 - - - - - - - - -
28/04:00pm 28.1 NNE 23 29 1008.6 - - - - - - - - -
28/03:30pm 28.1 NNE 23 29 1008.9 - - - - - - - - -
28/03:00pm 27.8 NE 22 28 1008.9 - - - - - - - - -
28/02:30pm 28.3 NE 24 29 1008.8 - - - - - - - - -
28/02:00pm 28.3 NE 22 28 1009.0 - - - - - - - - -
28/01:30pm 28.0 NE 26 32 1008.9 - - - - - - - - -
28/01:00pm 27.7 NE 25 30 1009.3 - - - - - - - - -
28/12:30pm 27.1 NE 28 33 1009.8 - - - - - - - - -
28/12:13pm 27.3 NE 29 41 1010.1 - - - - - - - - -
28/12:00pm 28.0 NE 27 33 1010.5 - - - - - - - - -
28/11:30am 27.9 NE 27 32 1010.6 - - - - - - - - -
28/11:00am 27.6 NE 27 32 1011.0 - - - - - - - - -
28/10:30am 27.5 NE 25 31 1011.4 - - - - - - - - -
28/10:00am 27.4 NE 24 28 1011.6 - - - - - - - - -
28/09:00am 27.4 ENE 27 33 1011.7 - - - - - - - - -
28/08:51am 28.4 ENE 20 32 1011.5 - - - - - - - - -
28/08:30am 28.9 ENE 20 25 1011.6 - - - - - - - - -
28/08:00am 28.7 ENE 19 23 1011.3 - - - - - - - - -
28/07:30am 28.6 E 17 21 1011.0 - - - - - - - - -
28/07:00am 28.4 E 16 20 1011.0 - - - - - - - - -
28/06:30am 28.1 E 15 18 1010.6 - - - - - - - - -
28/06:00am 28.4 E 15 19 1010.2 - - - - - - - - -
28/05:30am 28.4 E 13 16 1010.0 - - - - - - - - -
28/05:00am 28.3 E 15 19 1009.8 - - - - - - - - -
28/04:30am 28.5 E 14 17 1009.6 - - - - - - - - -
28/04:00am 28.6 ENE 16 19 1009.8 - - - - - - - - -
28/03:30am 28.5 E 14 18 1009.7 - - - - - - - - -
28/03:00am 28.4 E 14 17 1009.8 - - - - - - - - -
28/02:30am 28.4 ENE 14 17 1009.8 - - - - - - - - -
28/02:00am 28.4 ENE 14 16 1009.7 - - - - - - - - -
28/01:30am 28.6 ENE 14 19 1010.3 - - - - - - - - -
28/01:00am 27.8 ENE 12 15 1010.7 - - - - - - - - -
28/12:30am 28.1 ENE 14 18 1011.2 - - - - - - - - -
28/12:00am 27.6 ENE 14 18 1011.6 - - - - - - - - -
 
Date/Time
WST
Temp

°C
Wind Pressure Rain
since 9am
mm
Weather Cloud Vis
km
Sea
Height
m
Swell
Dir
 
Speed
knots
Gust
knots
hPa Trend Height
m
Period
s
Dir
27/11:30pm 26.7 ENE 15 21 1012.0 - - - - - - - - -
27/11:08pm 27.4 ENE 11 25 1012.2 - - - - - - - - -
27/11:00pm 28.2 E 7 8 1012.2 - - - - - - - - -
27/10:30pm 28.1 ENE 8 9 1012.1 - - - - - - - - -
27/10:00pm 28.0 ENE 10 14 1012.2 - - - - - - - - -
27/09:30pm 27.3 ENE 9 12 1012.2 - - - - - - - - -
27/09:00pm 26.2 NE 17 22 1012.3 - - - - - - - - -
27/08:46pm 25.7 ENE 10 25 1012.1 - - - - - - - - -
27/08:30pm 28.6 ENE 7 9 1011.9 - - - - - - - - -
27/08:00pm 28.7 ENE 8 9 1011.6 - - - - - - - - -
27/07:30pm 28.8 ENE 8 9 1011.3 - - - - - - - - -
27/07:00pm 28.9 ENE 7 8 1010.9 - - - - - - - - -
27/06:30pm 28.9 ENE 6 8 1010.6 - - - - - - - - -
27/06:00pm 29.1 ENE 6 8 1010.1 - - - - - - - - -
27/05:30pm 29.1 ENE 5 6 1009.7 - - - - - - - - -
27/05:00pm 29.5 E 6 7 1009.5 - - - - - - - - -
27/04:30pm 29.6 E 6 8 1009.4 - - - - - - - - -
27/04:00pm 29.8 E 7 8 1009.5 - - - - - - - - -
27/03:30pm 29.9 E 8 9 1009.7 - - - - - - - - -
27/03:00pm 30.0 E 8 10 1009.8 - - - - - - - - -
27/02:30pm 30.9 E 8 11 1009.9 - - - - - - - - -
27/02:00pm 30.1 ENE 9 11 1010.0 - - - - - - - - -
27/01:30pm 29.9 E 11 14 1010.1 - - - - - - - - -
27/01:00pm 30.3 E 13 16 1010.6 - - - - - - - - -
27/12:30pm 30.3 E 14 16 1011.0 - - - - - - - - -
27/12:00pm 30.5 E 13 15 1011.6 - - - - - - - - -
27/11:30am 30.6 E 13 16 1012.0 - - - - - - - - -
27/11:00am 30.8 E 15 18 1012.3 - - - - - - - - -
27/10:30am 30.6 E 14 17 1012.4 - - - - - - - - -
27/10:00am 30.7 E 15 19 1012.4 - - - - - - - - -
27/09:30am 30.6 ESE 15 19 1012.4 - - - - - - - - -
27/09:00am 30.4 ESE 14 17 1012.6 - - - - - - - - -
27/08:54am 30.4 ESE 13 17 1012.5 - - - - - - - - -
27/08:30am 29.4 SE 6 7 1012.8 - - - - - - - - -
27/08:00am 29.2 CALM 0 0 1013.0 - - - - - - - - -
27/07:30am 28.2 NNE 3 4 1012.9 - - - - - - - - -
27/07:00am 26.9 NNE 9 11 1012.8 - - - - - - - - -
27/06:30am 27.1 NNW 5 8 1012.5 - - - - - - - - -
27/06:00am 27.1 NNW 8 9 1012.3 - - - - - - - - -
27/05:30am 28.2 NE 3 5 1012.1 - - - - - - - - -
27/05:00am 29.2 ESE 8 14 1011.3 - - - - - - - - -
27/04:49am 29.0 E 13 20 1011.3 - - - - - - - - -
27/04:30am 27.4 ENE 21 29 1011.3 - - - - - - - - -
27/04:23am 27.8 E 17 29 1011.1 - - - - - - - - -
27/04:21am 28.0 E 15 23 1011.2 - - - - - - - - -
27/04:00am 28.4 SSW 7 7 1011.0 - - - - - - - - -
27/03:30am 28.5 SSW 6 7 1011.2 - - - - - - - - -
27/03:00am 28.6 SW 6 8 1011.3 - - - - - - - - -
27/02:30am 28.7 WNW 5 6 1011.5 - - - - - - - - -
27/02:00am 28.6 NW 5 5 1011.9 - - - - - - - - -
27/01:30am 28.5 W 6 6 1012.1 - - - - - - - - -
27/01:00am 28.7 NNW 4 5 1012.2 - - - - - - - - -
27/12:30am 28.6 NW 5 5 1012.3 - - - - - - - - -
27/12:00am 28.6 NNW 4 5 1012.3 - - - - - - - - -
 
Date/Time
WST
Temp

°C
Wind Pressure Rain
since 9am
mm
Weather Cloud Vis
km
Sea
Height
m
Swell
Dir
 
Speed
knots
Gust
knots
hPa Trend Height
m
Period
s
Dir
26/11:30pm 28.5 N 4 4 1012.5 - - - - - - - - -
26/11:00pm 28.6 N 4 5 1012.7 - - - - - - - - -
26/10:30pm 28.5 W 5 6 1012.5 - - - - - - - - -
26/10:00pm 28.8 N 2 5 1012.5 - - - - - - - - -
26/09:30pm 29.0 CALM 0 0 1012.6 - - - - - - - - -
26/09:00pm 29.3 CALM 0 0 1012.6 - - - - - - - - -
26/08:30pm 29.2 N 2 4 1012.4 - - - - - - - - -
26/08:00pm 29.3 NW 5 6 1012.2 - - - - - - - - -
26/07:30pm 29.4 NW 5 6 1011.9 - - - - - - - - -
26/07:00pm 29.1 W 6 8 1011.4 - - - - - - - - -
26/06:30pm 29.4 WSW 6 8 1011.4 - - - - - - - - -
26/06:00pm 29.4 SW 7 9 1010.7 - - - - - - - - -
26/05:00pm 30.1 WSW 8 10 1010.2 - - - - - - - - -
26/04:30pm 30.2 SW 7 9 1010.2 - - - - - - - - -
26/04:00pm 30.9 SW 9 11 1010.2 - - - - - - - - -
26/03:30pm 31.3 WSW 5 8 1010.1 - - - - - - - - -
26/03:00pm 30.8 SW 8 11 1010.2 - - - - - - - - -
26/02:30pm 31.4 SSW 9 11 1010.4 - - - - - - - - -

Other Formats:

Comma delimited format used in spreadsheet applications
http://www.bom.gov.au/fwo/IDW60701/IDW60701.94210.axf

JavaScript Object Notation format (JSON) in row-major order
http://www.bom.gov.au/fwo/IDW60701/IDW60701.94210.json